Primrose Ace — D5DQ7 — position and weather

sailwx.info

Track history (hours):
 
Tides and Currents Weather Stations Pressure Air Temp Water Temp Dewpoint Dewpoint Depression Visibility Wind Speed Wind Dir Waves Ship Positions

Primrose Ace

Last reported at 2018-Feb-12 17:54 UTC. Time now 2018-Feb-21 19:31 UTC.
Position N 01°14' E 103°58'.
Warning: this ship's position is 9 days out of date.

Length 200 m; draft 9 m.

Type: Cargo ship. MMSI: 636015949.

Date/timePositionNaut miles runAvg speedWind from/ knotsBaromVisibWave heightAir tempDewpointWater temp
2018-Feb-12 17:54N 01°14' E 103°58'512.3
2018-Feb-12 17:30N 01°12' E 103°54'4 8.7
2018-Feb-12 17:00N 01°11' E 103°50'3 5.1
2018-Feb-12 16:30N 01°13' E 103°48'4 9.2
2018-Feb-12 16:00N 01°16' E 103°45'1 2.2
2018-Feb-12 15:30N 01°17' E 103°45'0 0.0
2018-Feb-12 14:59N 01°17' E 103°45'0 0.0
2018-Feb-12 14:29N 01°17' E 103°45'0 0.0
2018-Feb-12 13:59N 01°17' E 103°45'0 0.0
2018-Feb-12 13:29N 01°17' E 103°45'0 0.0
2018-Feb-12 12:56N 01°17' E 103°45'0 0.0
2018-Feb-12 12:29N 01°17' E 103°45'0 0.0
2018-Feb-12 11:56N 01°17' E 103°45'0 0.0
2018-Feb-12 11:29N 01°17' E 103°45'0 0.0
2018-Feb-12 10:59N 01°17' E 103°45'0 0.0
2018-Feb-12 10:29N 01°17' E 103°45'0 0.0
2018-Feb-12 09:59N 01°17' E 103°45'0 0.0
2018-Feb-12 09:29N 01°17' E 103°45'0 0.0
2018-Feb-12 08:59N 01°17' E 103°45'0 0.0
2018-Feb-12 08:29N 01°17' E 103°45'1 1.8
2018-Feb-12 08:00N 01°17' E 103°45'0 0.5
2018-Feb-12 07:30N 01°17' E 103°45'3 5.3
2018-Feb-12 07:00N 01°15' E 103°47'4 7.4
2018-Feb-12 06:30N 01°13' E 103°49'5 9.1
2018-Feb-12 06:00N 01°14' E 103°54'3 5.4
2018-Feb-12 05:30N 01°14' E 103°56'3 6.5
2018-Feb-12 05:00N 01°15' E 103°60'  
Track history (hours):
 
Tides and Currents Weather Stations Pressure Air Temp Water Temp Dewpoint Dewpoint Depression Visibility Wind Speed Wind Dir Waves Ship Positions

Primrose Ace

Last reported at 2018-Feb-12 17:54 UTC. Time now 2018-Feb-21 19:31 UTC.
Position N 01°14' E 103°58'.
Warning: this ship's position is 9 days out of date.

Length 200 m; draft 9 m.

Type: Cargo ship. MMSI: 636015949.

Date/timePositionNaut miles runAvg speedWind from/ knotsBaromVisibWave heightAir tempDewpointWater temp
2018-Feb-12 17:54N 01°14' E 103°58'512.3
2018-Feb-12 17:30N 01°12' E 103°54'4 8.7
2018-Feb-12 17:00N 01°11' E 103°50'3 5.1
2018-Feb-12 16:30N 01°13' E 103°48'4 9.2
2018-Feb-12 16:00N 01°16' E 103°45'1 2.2
2018-Feb-12 15:30N 01°17' E 103°45'0 0.0
2018-Feb-12 14:59N 01°17' E 103°45'0 0.0
2018-Feb-12 14:29N 01°17' E 103°45'0 0.0
2018-Feb-12 13:59N 01°17' E 103°45'0 0.0
2018-Feb-12 13:29N 01°17' E 103°45'0 0.0
2018-Feb-12 12:56N 01°17' E 103°45'0 0.0
2018-Feb-12 12:29N 01°17' E 103°45'0 0.0
2018-Feb-12 11:56N 01°17' E 103°45'0 0.0
2018-Feb-12 11:29N 01°17' E 103°45'0 0.0
2018-Feb-12 10:59N 01°17' E 103°45'0 0.0
2018-Feb-12 10:29N 01°17' E 103°45'0 0.0
2018-Feb-12 09:59N 01°17' E 103°45'0 0.0
2018-Feb-12 09:29N 01°17' E 103°45'0 0.0
2018-Feb-12 08:59N 01°17' E 103°45'0 0.0
2018-Feb-12 08:29N 01°17' E 103°45'1 1.8
2018-Feb-12 08:00N 01°17' E 103°45'0 0.5
2018-Feb-12 07:30N 01°17' E 103°45'3 5.3
2018-Feb-12 07:00N 01°15' E 103°47'4 7.4
2018-Feb-12 06:30N 01°13' E 103°49'5 9.1
2018-Feb-12 06:00N 01°14' E 103°54'3 5.4
2018-Feb-12 05:30N 01°14' E 103°56'3 6.5
2018-Feb-12 05:00N 01°15' E 103°60'  

Dump ship's entire track history